Time;durP1;ratioP1;P1;durP2;ratioP2;P2;SDS_P1;SDS_P2;PMS_P1;PMS_P2;Temp;Humidity;BMP_temperature;BMP_pressure;BME280_temperature;BME280_humidity;BME280_pressure;Samples;Min_cycle;Max_cycle;Signal;HPM_P1;HPM_P2
2022/01/02 00:01:51;;;;;;;9.48;5.55;;;11.20;59.70;;;;;;5134691;27;35590;-74
2022/01/02 00:04:19;;;;;;;7.57;5.28;;;11.10;59.60;;;;;;5163019;27;34227;-75
2022/01/02 00:06:49;;;;;;;8.07;5.63;;;11.10;59.60;;;;;;5130196;27;34143;-74
2022/01/02 00:09:36;;;;;;;9.90;5.65;;;11.10;59.60;;;;;;5127521;27;34353;-75
2022/01/02 00:12:12;;;;;;;9.10;5.50;;;11.00;59.60;;;;;;5162458;27;35024;-75
2022/01/02 00:14:43;;;;;;;7.78;5.38;;;11.00;59.60;;;;;;5130698;27;34255;-75
2022/01/02 00:17:09;;;;;;;8.68;5.65;;;10.90;59.60;;;;;;5148456;27;34156;-75
2022/01/02 00:19:40;;;;;;;7.63;5.25;;;10.90;59.60;;;;;;5147749;27;34297;-75
2022/01/02 00:22:14;;;;;;;6.28;4.63;;;10.80;59.50;;;;;;5147058;27;35862;-74
2022/01/02 00:24:43;;;;;;;7.65;5.35;;;10.80;59.60;;;;;;5147207;27;34223;-74
2022/01/02 00:27:11;;;;;;;7.82;5.38;;;10.70;59.70;;;;;;5128998;27;34169;-74
2022/01/02 00:29:39;;;;;;;9.32;5.45;;;10.60;59.70;;;;;;5129648;27;34162;-75
2022/01/02 00:32:07;;;;;;;8.77;5.63;;;10.60;59.80;;;;;;5129819;27;35693;-75
2022/01/02 00:34:36;;;;;;;7.57;5.25;;;10.60;59.90;;;;;;5147811;27;34248;-74
2022/01/02 00:37:03;;;;;;;7.95;5.07;;;10.60;59.80;;;;;;5147173;27;34221;-74
2022/01/02 00:39:29;;;;;;;8.38;5.93;;;10.60;59.80;;;;;;5133855;27;34301;-75
2022/01/02 00:42:01;;;;;;;9.70;5.55;;;10.60;59.80;;;;;;5124990;27;34317;-75
2022/01/02 00:44:38;;;;;;;9.02;6.40;;;10.50;59.90;;;;;;5126600;27;34384;-75
2022/01/02 00:47:11;;;;;;;9.93;6.03;;;10.50;59.90;;;;;;5126180;27;34177;-74
2022/01/02 00:49:41;;;;;;;9.98;6.00;;;10.50;59.90;;;;;;5126331;27;34277;-75
2022/01/02 00:52:15;;;;;;;8.98;5.55;;;10.50;59.90;;;;;;5126231;27;34400;-74
2022/01/02 00:54:45;;;;;;;10.60;5.85;;;10.50;59.90;;;;;;5126295;27;34315;-75
2022/01/02 00:57:17;;;;;;;10.18;6.60;;;10.60;59.80;;;;;;5143812;27;34304;-75
2022/01/02 01:00:08;;;;;;;11.32;6.28;;;10.60;59.80;;;;;;5126553;27;34050;-74
2022/01/02 01:02:39;;;;;;;10.98;6.03;;;10.60;60.00;;;;;;5144566;27;35293;-75
2022/01/02 01:05:07;;;;;;;8.30;6.00;;;10.60;59.80;;;;;;5144149;27;34186;-75
2022/01/02 01:07:34;;;;;;;10.13;5.90;;;10.60;59.80;;;;;;5143442;27;34264;-74
2022/01/02 01:10:03;;;;;;;10.05;5.95;;;10.60;59.80;;;;;;5125702;27;34552;-75
2022/01/02 01:12:30;;;;;;;10.88;6.40;;;10.60;59.70;;;;;;5126440;27;34414;-75
2022/01/02 01:14:56;;;;;;;9.82;6.32;;;10.60;59.80;;;;;;5108602;27;34249;-74
2022/01/02 01:17:24;;;;;;;11.45;7.10;;;10.60;59.70;;;;;;5143950;27;34215;-75
2022/01/02 01:19:52;;;;;;;9.43;6.18;;;10.70;59.70;;;;;;5125564;27;34101;-75
2022/01/02 01:22:18;;;;;;;10.20;6.18;;;10.70;59.70;;;;;;5160479;27;35953;-75
2022/01/02 01:24:44;;;;;;;8.85;5.80;;;10.70;59.70;;;;;;5159784;27;34237;-75
2022/01/02 01:27:10;;;;;;;9.18;5.68;;;10.70;59.60;;;;;;5160709;27;34289;-75
2022/01/02 01:29:37;;;;;;;11.35;6.72;;;10.70;59.70;;;;;;5160181;27;34297;-75
2022/01/02 01:32:05;;;;;;;10.77;6.55;;;10.70;59.70;;;;;;5143941;27;34560;-75
2022/01/02 01:34:31;;;;;;;9.60;6.20;;;10.70;59.60;;;;;;5125418;27;34249;-74
2022/01/02 01:36:57;;;;;;;13.50;6.45;;;10.70;59.70;;;;;;5125157;27;34143;-75
2022/01/02 01:39:23;;;;;;;10.50;5.90;;;10.70;59.70;;;;;;5163409;27;34128;-74
2022/01/02 01:41:52;;;;;;;9.18;6.07;;;10.80;59.70;;;;;;5150156;27;34223;-74
2022/01/02 01:44:27;;;;;;;10.38;5.95;;;10.70;59.70;;;;;;5149735;27;34156;-75
2022/01/02 01:46:55;;;;;;;10.50;6.30;;;10.70;59.60;;;;;;5150041;27;34469;-75
2022/01/02 01:49:27;;;;;;;10.45;6.05;;;10.70;59.70;;;;;;5150083;27;34458;-75
2022/01/02 01:51:54;;;;;;;10.90;5.95;;;10.70;59.60;;;;;;5149955;27;36190;-75
2022/01/02 01:54:21;;;;;;;8.82;5.35;;;10.70;59.60;;;;;;5167219;27;34253;-75
2022/01/02 01:56:50;;;;;;;11.25;6.18;;;10.70;59.60;;;;;;5150029;27;34499;-75
2022/01/02 01:59:17;;;;;;;8.60;5.78;;;10.70;59.60;;;;;;5167928;27;34367;-75
2022/01/02 02:01:44;;;;;;;8.18;5.57;;;10.60;59.50;;;;;;5167812;27;34324;-75
2022/01/02 02:04:10;;;;;;;8.43;5.82;;;10.50;59.50;;;;;;5167175;27;34834;-75
2022/01/02 02:06:37;;;;;;;8.95;5.63;;;10.50;59.60;;;;;;5149368;27;34390;-75
2022/01/02 02:09:05;;;;;;;9.95;5.47;;;10.40;59.60;;;;;;5167759;27;34272;-75
2022/01/02 02:11:32;;;;;;;11.88;5.65;;;10.40;59.60;;;;;;5132541;27;36700;-75
2022/01/02 02:13:59;;;;;;;8.60;4.90;;;10.40;59.70;;;;;;5149708;27;34189;-75
2022/01/02 02:16:27;;;;;;;14.35;5.55;;;10.40;59.70;;;;;;5149457;27;34095;-74
2022/01/02 02:18:54;;;;;;;10.20;5.55;;;10.40;59.60;;;;;;5168276;27;34291;-74
2022/01/02 02:21:31;;;;;;;9.48;5.43;;;10.40;59.60;;;;;;5149149;27;35669;-75
2022/01/02 02:23:57;;;;;;;8.13;5.57;;;10.30;59.70;;;;;;5167158;27;34303;-75
2022/01/02 02:26:23;;;;;;;9.25;5.03;;;10.30;59.70;;;;;;5105749;27;34215;-75
2022/01/02 02:28:49;;;;;;;8.85;5.60;;;10.30;59.60;;;;;;5167933;27;34151;-75
2022/01/02 02:31:15;;;;;;;8.55;5.03;;;10.20;59.50;;;;;;5148899;27;35551;-75
2022/01/02 02:33:42;;;;;;;10.30;6.00;;;10.20;59.60;;;;;;5148977;27;34173;-74
2022/01/02 02:36:08;;;;;;;8.30;5.78;;;10.10;59.60;;;;;;5167358;27;34372;-74
2022/01/02 02:38:37;;;;;;;8.23;5.07;;;10.10;59.70;;;;;;5167674;27;34587;-75
2022/01/02 02:41:04;;;;;;;10.10;6.03;;;10.10;59.70;;;;;;5167297;27;34421;-75
2022/01/02 02:43:37;;;;;;;9.95;6.03;;;10.10;59.70;;;;;;5149137;27;34220;-75
2022/01/02 02:51:40;;;;;;;10.45;6.25;;;10.10;59.70;;;;;;5149905;27;34652;-74
2022/01/02 02:54:07;;;;;;;9.93;6.32;;;10.10;59.80;;;;;;5141409;27;34245;-74
2022/01/02 02:59:15;;;;;;;9.75;6.22;;;10.10;59.80;;;;;;5161515;27;34121;-75
2022/01/02 03:01:42;;;;;;;9.02;5.82;;;10.10;59.90;;;;;;5166771;27;34297;-75
2022/01/02 03:04:08;;;;;;;10.55;5.93;;;10.10;59.70;;;;;;5148810;27;34709;-75
2022/01/02 03:06:34;;;;;;;10.13;6.20;;;10.10;59.70;;;;;;5167075;27;34115;-74
2022/01/02 03:09:07;;;;;;;9.40;5.50;;;10.10;59.70;;;;;;5148400;27;34369;-74
2022/01/02 03:11:35;;;;;;;11.65;6.45;;;10.10;59.70;;;;;;5148365;27;35556;-74
2022/01/02 03:14:01;;;;;;;8.23;5.32;;;10.20;59.70;;;;;;5147323;27;34203;-75
2022/01/02 03:16:27;;;;;;;8.60;5.47;;;10.20;59.60;;;;;;5167068;27;34197;-75
2022/01/02 03:18:54;;;;;;;8.07;5.05;;;10.10;59.50;;;;;;5148416;27;34471;-75
2022/01/02 03:21:21;;;;;;;8.25;5.10;;;10.20;59.60;;;;;;5148282;27;35775;-75
2022/01/02 03:23:48;;;;;;;8.30;5.30;;;10.10;59.50;;;;;;5166719;27;34357;-75
2022/01/02 03:26:14;;;;;;;7.47;5.45;;;10.10;59.50;;;;;;5130977;27;34481;-74
2022/01/02 03:28:41;;;;;;;7.70;5.07;;;10.10;59.50;;;;;;5148215;27;34189;-75
2022/01/02 03:31:07;;;;;;;7.82;5.28;;;10.00;59.40;;;;;;5147604;27;35851;-75
2022/01/02 03:33:34;;;;;;;8.23;5.65;;;10.10;59.50;;;;;;5147857;27;34258;-74
2022/01/02 03:36:00;;;;;;;8.32;5.18;;;10.00;59.30;;;;;;5147851;27;34321;-75
2022/01/02 03:38:27;;;;;;;9.25;5.93;;;10.00;59.40;;;;;;5167058;27;34211;-75
2022/01/02 03:40:53;;;;;;;8.45;5.20;;;10.00;59.40;;;;;;5147346;27;35848;-75
2022/01/02 03:43:19;;;;;;;7.00;5.05;;;10.00;59.50;;;;;;5147936;27;34335;-75
2022/01/02 03:45:51;;;;;;;8.10;5.07;;;9.90;59.40;;;;;;5149123;27;34090;-75
2022/01/02 03:48:17;;;;;;;7.18;5.30;;;9.90;59.40;;;;;;5147727;27;34212;-75
2022/01/02 03:50:43;;;;;;;9.85;5.15;;;9.90;59.50;;;;;;5166441;27;34479;-75
2022/01/02 03:53:09;;;;;;;10.98;5.43;;;9.90;59.60;;;;;;5148065;27;34227;-74
2022/01/02 03:55:36;;;;;;;9.15;5.82;;;9.90;59.60;;;;;;5166502;27;34489;-74
2022/01/02 03:58:03;;;;;;;9.82;5.82;;;9.90;59.60;;;;;;5147458;27;34381;-75
2022/01/02 04:00:29;;;;;;;10.52;5.20;;;9.90;59.60;;;;;;5166256;27;35031;-75
2022/01/02 04:02:55;;;;;;;11.65;6.40;;;9.90;59.60;;;;;;5166508;27;34086;-74
2022/01/02 04:05:21;;;;;;;9.93;6.30;;;9.80;59.50;;;;;;5148352;27;34122;-75
2022/01/02 04:07:48;;;;;;;8.45;6.03;;;9.80;59.50;;;;;;5130487;27;34244;-75
2022/01/02 04:10:16;;;;;;;13.25;5.90;;;9.80;59.60;;;;;;5166187;27;34513;-75
2022/01/02 04:12:43;;;;;;;15.27;6.32;;;9.90;59.70;;;;;;5164786;27;34104;-74
2022/01/02 04:15:11;;;;;;;11.20;6.82;;;9.80;59.60;;;;;;5164919;27;34255;-74
2022/01/02 04:17:37;;;;;;;12.73;7.00;;;9.90;59.70;;;;;;5147556;27;34345;-74
2022/01/02 04:20:06;;;;;;;15.40;6.45;;;9.80;59.70;;;;;;5146791;27;34470;-75
2022/01/02 04:22:32;;;;;;;13.45;6.80;;;9.90;59.70;;;;;;5130197;27;34370;-74
2022/01/02 04:24:59;;;;;;;11.13;6.43;;;9.80;59.60;;;;;;5056826;27;34462;-75
2022/01/02 04:27:25;;;;;;;11.85;6.93;;;9.80;59.60;;;;;;5088252;27;34253;-74
2022/01/02 04:29:51;;;;;;;10.20;6.32;;;9.80;59.70;;;;;;5164571;27;35628;-75
2022/01/02 04:32:18;;;;;;;8.75;6.03;;;9.80;59.70;;;;;;5165373;27;34161;-75
2022/01/02 04:34:45;;;;;;;14.95;5.57;;;9.80;59.70;;;;;;5147282;27;34183;-75
2022/01/02 04:37:11;;;;;;;12.18;6.10;;;9.70;59.70;;;;;;5146768;27;34149;-75
2022/01/02 04:39:39;;;;;;;11.10;6.65;;;9.70;59.70;;;;;;5146598;27;35794;-74
2022/01/02 04:42:06;;;;;;;9.45;6.82;;;9.70;59.70;;;;;;5146896;27;34135;-75
2022/01/02 04:44:32;;;;;;;10.32;6.00;;;9.70;59.70;;;;;;5165354;27;34208;-75
2022/01/02 04:46:59;;;;;;;10.63;6.90;;;9.70;59.70;;;;;;5147115;27;34199;-75
2022/01/02 04:49:25;;;;;;;10.23;6.53;;;9.70;59.70;;;;;;5114423;27;34678;-75
2022/01/02 04:51:53;;;;;;;9.52;5.82;;;9.70;59.70;;;;;;5147223;27;34446;-75
2022/01/02 04:54:20;;;;;;;8.93;6.03;;;9.70;59.70;;;;;;5165399;27;34400;-74
2022/01/02 04:56:47;;;;;;;8.95;5.70;;;9.70;59.70;;;;;;5147128;27;34209;-75
2022/01/02 04:59:14;;;;;;;8.13;5.68;;;9.70;59.70;;;;;;5164025;27;35092;-74
2022/01/02 05:01:40;;;;;;;10.05;6.00;;;9.70;59.80;;;;;;5146846;27;34180;-75
2022/01/02 05:04:06;;;;;;;7.57;5.43;;;9.60;59.70;;;;;;5146844;27;34177;-75
2022/01/02 05:06:32;;;;;;;11.30;6.22;;;9.60;59.70;;;;;;5146998;27;34407;-75
2022/01/02 05:08:58;;;;;;;9.65;5.88;;;9.60;59.70;;;;;;5164519;27;34161;-75
2022/01/02 05:11:24;;;;;;;7.97;5.90;;;9.60;59.60;;;;;;5087297;27;34119;-75
2022/01/02 05:13:50;;;;;;;7.55;5.35;;;9.60;59.60;;;;;;5133025;27;34174;-74
2022/01/02 05:16:16;;;;;;;11.20;5.20;;;9.60;59.60;;;;;;5153628;27;34339;-75
2022/01/02 05:18:42;;;;;;;10.07;6.10;;;9.60;59.60;;;;;;5135692;27;35728;-74
2022/01/02 05:21:09;;;;;;;7.38;5.18;;;9.50;59.70;;;;;;5153302;27;34098;-75
2022/01/02 05:23:35;;;;;;;8.23;5.03;;;9.50;59.70;;;;;;5153377;27;34297;-75
2022/01/02 05:26:01;;;;;;;6.40;5.20;;;9.50;59.70;;;;;;5170595;27;34154;-75
2022/01/02 05:28:27;;;;;;;7.55;4.60;;;9.50;59.70;;;;;;5153368;27;35780;-75
2022/01/02 05:30:53;;;;;;;6.38;4.57;;;9.50;59.70;;;;;;5135874;27;34077;-75
2022/01/02 05:33:19;;;;;;;8.40;5.50;;;9.50;59.70;;;;;;5153680;27;34300;-74
2022/01/02 05:35:45;;;;;;;7.32;4.95;;;9.40;59.60;;;;;;5136282;27;34181;-74
2022/01/02 05:38:11;;;;;;;9.40;5.40;;;9.40;59.60;;;;;;5153098;27;35838;-75
2022/01/02 05:40:37;;;;;;;7.90;5.18;;;9.40;59.60;;;;;;5152751;27;34259;-75
2022/01/02 05:43:05;;;;;;;10.00;5.05;;;9.40;59.50;;;;;;5152717;27;34228;-75
2022/01/02 05:45:32;;;;;;;7.35;5.00;;;9.40;59.50;;;;;;5172448;27;34109;-74
2022/01/02 05:47:58;;;;;;;8.32;4.90;;;9.40;59.50;;;;;;5153569;27;34318;-75
2022/01/02 05:50:25;;;;;;;7.60;5.05;;;9.40;59.50;;;;;;5171556;27;34337;-74
2022/01/02 05:52:51;;;;;;;7.80;5.22;;;9.40;59.60;;;;;;5170400;27;34338;-74
2022/01/02 05:55:17;;;;;;;5.88;4.90;;;9.40;59.60;;;;;;5152707;27;34421;-75
2022/01/02 05:57:43;;;;;;;7.07;5.25;;;9.30;59.60;;;;;;5171024;27;34221;-75
2022/01/02 06:00:10;;;;;;;7.72;5.38;;;9.40;59.60;;;;;;5153413;27;34266;-74
2022/01/02 06:02:36;;;;;;;6.95;4.90;;;9.30;59.60;;;;;;5170869;27;34415;-75
2022/01/02 06:05:04;;;;;;;9.63;5.32;;;9.40;59.60;;;;;;5152798;27;34287;-74
2022/01/02 06:07:38;;;;;;;8.20;4.70;;;9.30;59.60;;;;;;5170688;27;35752;-74
2022/01/02 06:10:05;;;;;;;6.40;4.72;;;9.30;59.60;;;;;;5187962;27;34291;-75
2022/01/02 06:12:31;;;;;;;8.10;5.50;;;9.30;59.60;;;;;;5152904;27;34356;-75
2022/01/02 06:14:57;;;;;;;6.47;4.70;;;9.30;59.60;;;;;;5152724;27;34647;-75
2022/01/02 06:17:24;;;;;;;8.50;5.63;;;9.30;59.60;;;;;;5170758;27;35353;-74
2022/01/02 06:19:50;;;;;;;7.25;5.10;;;9.30;59.60;;;;;;5135248;27;34153;-75
2022/01/02 06:22:16;;;;;;;7.38;4.93;;;9.30;59.60;;;;;;5152282;27;34118;-74
2022/01/02 06:24:42;;;;;;;8.35;5.60;;;9.30;59.60;;;;;;5170115;27;34385;-74
2022/01/02 06:27:09;;;;;;;7.65;5.30;;;9.30;59.70;;;;;;5148390;27;36802;-75
2022/01/02 06:29:35;;;;;;;9.07;5.97;;;9.30;59.70;;;;;;5149628;27;34193;-75
2022/01/02 06:32:02;;;;;;;9.00;5.40;;;9.30;59.60;;;;;;5167680;27;34194;-75
2022/01/02 06:34:28;;;;;;;9.43;5.97;;;9.20;59.60;;;;;;5149000;27;34170;-74
2022/01/02 06:36:54;;;;;;;7.35;5.15;;;9.30;59.70;;;;;;5149246;27;35827;-74
2022/01/02 06:39:20;;;;;;;8.57;5.50;;;9.30;59.70;;;;;;5148648;27;34188;-75
2022/01/02 06:41:46;;;;;;;7.72;5.60;;;9.30;59.70;;;;;;5167824;27;34337;-75
2022/01/02 06:44:12;;;;;;;7.43;5.15;;;9.30;59.70;;;;;;5167563;27;34154;-75
2022/01/02 06:46:40;;;;;;;7.18;4.82;;;9.30;59.60;;;;;;5166824;27;35175;-75
2022/01/02 06:49:06;;;;;;;6.43;4.70;;;9.30;59.60;;;;;;5167436;27;34261;-75
2022/01/02 06:51:32;;;;;;;6.70;4.97;;;9.30;59.60;;;;;;5167458;27;34159;-75
2022/01/02 06:53:58;;;;;;;7.75;5.20;;;9.30;59.60;;;;;;5148785;27;34184;-75
2022/01/02 06:56:24;;;;;;;6.85;4.80;;;9.20;59.40;;;;;;5165892;27;36044;-75
2022/01/02 06:58:50;;;;;;;7.00;4.68;;;9.20;59.50;;;;;;5166888;27;34265;-75
2022/01/02 07:01:16;;;;;;;7.47;4.78;;;9.20;59.60;;;;;;5148917;27;34599;-74
2022/01/02 07:03:42;;;;;;;7.57;4.97;;;9.20;59.60;;;;;;5167265;27;34237;-74
2022/01/02 07:06:08;;;;;;;6.18;4.25;;;9.20;59.70;;;;;;5148106;27;35858;-75
2022/01/02 07:08:34;;;;;;;8.25;5.35;;;9.10;59.70;;;;;;5167337;27;34145;-75
2022/01/02 07:11:00;;;;;;;7.50;5.15;;;9.10;59.70;;;;;;5147357;27;34204;-75
2022/01/02 07:13:26;;;;;;;6.43;4.78;;;9.00;60.40;;;;;;5106063;27;34627;-75
2022/01/02 07:15:52;;;;;;;8.63;5.28;;;9.10;59.80;;;;;;5130646;27;36231;-75
2022/01/02 07:18:18;;;;;;;9.82;5.82;;;9.00;59.70;;;;;;5143943;27;34267;-75
2022/01/02 07:20:44;;;;;;;7.65;4.85;;;9.10;59.80;;;;;;5149490;27;34547;-75
2022/01/02 07:23:10;;;;;;;7.93;5.45;;;9.10;59.80;;;;;;5148298;27;34222;-75
2022/01/02 07:25:37;;;;;;;7.38;5.32;;;9.10;59.70;;;;;;5148760;27;34334;-75
2022/01/02 07:28:03;;;;;;;7.65;4.90;;;9.00;59.60;;;;;;5148461;27;34095;-75
2022/01/02 07:30:29;;;;;;;7.13;5.22;;;9.10;59.70;;;;;;5165629;27;34341;-75
2022/01/02 07:33:01;;;;;;;6.90;4.93;;;9.10;59.70;;;;;;5131042;27;34116;-75
2022/01/02 07:35:29;;;;;;;7.43;5.07;;;9.10;59.70;;;;;;5182506;27;35616;-74
2022/01/02 07:37:55;;;;;;;8.50;5.70;;;9.10;59.70;;;;;;5164915;27;34073;-75
2022/01/02 07:40:21;;;;;;;7.90;5.32;;;9.00;59.60;;;;;;5148051;27;34158;-75
2022/01/02 07:42:47;;;;;;;6.35;4.50;;;9.00;59.60;;;;;;5165710;27;34148;-75
2022/01/02 07:45:13;;;;;;;9.15;5.63;;;9.00;59.60;;;;;;5147213;27;35742;-75
2022/01/02 07:47:40;;;;;;;7.70;5.32;;;9.00;59.60;;;;;;5148316;27;34221;-74
2022/01/02 07:50:07;;;;;;;9.32;5.18;;;9.00;59.70;;;;;;5147506;27;34373;-75
2022/01/02 07:52:33;;;;;;;6.93;5.03;;;9.00;59.60;;;;;;5147946;27;34252;-75
2022/01/02 07:54:59;;;;;;;8.27;5.47;;;9.00;59.60;;;;;;5147529;27;36762;-75
2022/01/02 07:57:25;;;;;;;8.88;5.55;;;9.00;59.60;;;;;;5105108;27;34469;-75
2022/01/02 07:59:51;;;;;;;11.45;5.22;;;9.00;59.60;;;;;;5148583;27;34138;-75
2022/01/02 08:02:17;;;;;;;7.80;5.15;;;9.00;59.60;;;;;;5147571;27;34146;-74
2022/01/02 08:04:43;;;;;;;8.27;5.15;;;9.00;59.60;;;;;;5147890;27;34629;-74
2022/01/02 08:07:09;;;;;;;10.63;5.70;;;9.00;59.60;;;;;;5165714;27;35264;-75
2022/01/02 08:09:35;;;;;;;10.95;5.10;;;9.00;59.70;;;;;;5147818;27;34511;-75
2022/01/02 08:12:01;;;;;;;10.68;5.05;;;9.00;59.60;;;;;;5147583;27;34631;-75
2022/01/02 08:14:27;;;;;;;11.52;5.22;;;9.10;59.70;;;;;;5165907;27;34243;-75
2022/01/02 08:16:53;;;;;;;7.53;4.80;;;9.10;59.70;;;;;;5164982;27;34126;-74
2022/01/02 08:19:19;;;;;;;7.28;4.75;;;9.10;59.70;;;;;;5130493;27;34263;-74
2022/01/02 08:21:45;;;;;;;6.95;5.13;;;9.10;59.70;;;;;;5148105;27;34277;-74
2022/01/02 08:24:11;;;;;;;7.15;5.10;;;9.10;59.70;;;;;;5147346;27;36448;-75
2022/01/02 08:26:38;;;;;;;8.05;4.90;;;9.10;59.70;;;;;;5147506;27;34120;-75
2022/01/02 08:29:04;;;;;;;7.88;5.20;;;9.10;59.70;;;;;;5165174;27;34260;-75
2022/01/02 08:31:31;;;;;;;8.98;5.10;;;9.10;59.70;;;;;;5147591;27;34250;-75
2022/01/02 08:33:58;;;;;;;6.78;5.20;;;9.10;59.70;;;;;;5147007;27;35669;-75
2022/01/02 08:36:24;;;;;;;8.48;5.38;;;9.10;59.70;;;;;;5147164;27;34300;-75
2022/01/02 08:38:51;;;;;;;6.93;5.15;;;9.00;59.50;;;;;;5165151;27;34263;-74
2022/01/02 08:41:17;;;;;;;8.05;5.38;;;9.00;59.60;;;;;;5147436;27;34208;-75
2022/01/02 08:43:43;;;;;;;8.10;4.97;;;9.00;59.60;;;;;;5144405;27;34209;-75
2022/01/02 08:46:10;;;;;;;9.82;4.72;;;9.00;59.70;;;;;;5161096;27;34747;-75
2022/01/02 08:48:36;;;;;;;9.52;4.93;;;9.10;59.80;;;;;;5143932;27;34167;-75
2022/01/02 08:51:03;;;;;;;7.82;5.20;;;9.10;59.80;;;;;;5160785;27;34287;-75
2022/01/02 08:53:31;;;;;;;6.75;4.88;;;9.10;59.70;;;;;;5144516;27;35057;-75
2022/01/02 08:55:57;;;;;;;6.82;5.13;;;9.20;59.70;;;;;;5127068;27;34283;-74
2022/01/02 08:58:23;;;;;;;7.68;5.40;;;9.20;59.60;;;;;;5160740;27;34357;-74
2022/01/02 09:00:49;;;;;;;6.40;5.05;;;9.20;59.60;;;;;;5126624;27;34421;-75
2022/01/02 09:03:15;;;;;;;10.23;5.40;;;9.20;59.60;;;;;;5160401;27;35789;-74
2022/01/02 09:05:42;;;;;;;6.00;4.57;;;9.30;59.60;;;;;;5160322;27;34110;-74
2022/01/02 09:08:08;;;;;;;8.32;4.70;;;9.30;59.70;;;;;;5160675;27;34219;-75
2022/01/02 09:10:34;;;;;;;9.00;4.50;;;9.30;59.70;;;;;;5160462;27;34463;-75
2022/01/02 09:13:00;;;;;;;8.63;4.40;;;9.30;59.60;;;;;;5160428;27;36406;-75
2022/01/02 09:15:26;;;;;;;6.03;4.28;;;9.20;59.50;;;;;;5144611;27;34246;-75
2022/01/02 09:17:53;;;;;;;5.85;4.43;;;9.30;59.60;;;;;;5143618;27;34309;-75
2022/01/02 09:20:20;;;;;;;6.50;4.57;;;9.30;59.60;;;;;;5160860;27;34278;-75
2022/01/02 09:22:47;;;;;;;6.82;4.43;;;9.30;59.70;;;;;;5160146;27;36774;-75
2022/01/02 09:25:14;;;;;;;5.88;4.28;;;9.20;59.50;;;;;;5144050;27;34096;-75
2022/01/02 09:27:41;;;;;;;6.15;4.90;;;9.30;59.50;;;;;;5143093;27;34271;-75
2022/01/02 09:30:08;;;;;;;5.15;3.85;;;9.30;59.60;;;;;;5143810;27;34370;-75
2022/01/02 09:32:34;;;;;;;6.43;4.05;;;9.20;59.40;;;;;;5160442;27;36054;-75
2022/01/02 09:35:02;;;;;;;5.18;4.05;;;9.30;59.60;;;;;;5143075;27;34328;-75
2022/01/02 09:37:28;;;;;;;8.18;3.70;;;9.30;59.50;;;;;;5160280;27;34251;-75
2022/01/02 09:39:54;;;;;;;5.40;4.07;;;9.30;59.60;;;;;;5160098;27;34036;-74
2022/01/02 09:42:20;;;;;;;4.72;3.55;;;9.30;59.50;;;;;;5126025;27;35687;-75
2022/01/02 09:44:46;;;;;;;7.05;4.43;;;9.30;59.50;;;;;;5144522;27;34346;-75
2022/01/02 09:47:14;;;;;;;5.88;3.90;;;9.40;59.40;;;;;;5108177;27;34390;-75
2022/01/02 09:49:40;;;;;;;5.88;3.95;;;9.40;59.40;;;;;;5125567;27;34324;-75
2022/01/02 09:52:07;;;;;;;5.32;4.32;;;9.40;59.30;;;;;;5142282;27;36839;-75
2022/01/02 09:54:34;;;;;;;5.47;3.80;;;9.50;59.50;;;;;;5125933;27;34299;-75
2022/01/02 09:57:02;;;;;;;6.65;4.47;;;9.50;59.40;;;;;;5126147;27;34338;-75
2022/01/02 09:59:28;;;;;;;6.88;4.65;;;9.60;59.20;;;;;;5109839;27;34274;-75
2022/01/02 10:01:54;;;;;;;4.35;3.83;;;9.60;59.20;;;;;;5145721;27;36678;-75
2022/01/02 10:04:37;;;;;;;5.20;4.15;;;9.60;59.20;;;;;;5130013;27;34114;-75
2022/01/02 10:07:06;;;;;;;5.82;4.03;;;9.70;59.30;;;;;;5125683;27;34232;-75
2022/01/02 10:09:36;;;;;;;6.22;4.13;;;9.80;59.30;;;;;;5103851;27;34462;-75
2022/01/02 10:12:20;;;;;;;5.93;3.78;;;9.80;59.20;;;;;;5112705;27;35484;-75
2022/01/02 10:15:06;;;;;;;5.85;3.85;;;9.90;58.90;;;;;;5113005;27;34189;-75
2022/01/02 10:17:53;;;;;;;4.95;3.83;;;10.00;59.00;;;;;;5087016;27;34194;-75
2022/01/02 10:20:25;;;;;;;5.93;3.92;;;10.20;58.60;;;;;;5129954;27;34142;-75
2022/01/02 10:23:22;;;;;;;5.78;4.18;;;10.30;58.60;;;;;;5129085;27;35791;-75
2022/01/02 10:25:55;;;;;;;4.63;3.45;;;10.50;58.20;;;;;;5120562;27;34149;-75
2022/01/02 10:28:28;;;;;;;8.90;4.80;;;10.60;58.30;;;;;;5111781;27;34306;-76
2022/01/02 10:30:59;;;;;;;5.68;4.35;;;10.80;58.10;;;;;;5129694;27;34379;-75
2022/01/02 10:33:26;;;;;;;5.35;4.20;;;11.00;57.80;;;;;;5103812;27;34311;-76
2022/01/02 10:36:00;;;;;;;5.68;4.05;;;11.20;57.60;;;;;;5128885;27;34201;-75
2022/01/02 10:38:27;;;;;;;7.85;4.35;;;11.40;57.30;;;;;;5146900;27;34301;-75
2022/01/02 10:40:54;;;;;;;6.43;3.65;;;11.40;57.10;;;;;;5128909;27;34223;-76
2022/01/02 10:43:26;;;;;;;4.47;3.95;;;11.50;57.00;;;;;;5147448;27;34170;-75
2022/01/02 10:45:54;;;;;;;5.00;3.78;;;11.50;56.90;;;;;;5111505;27;34442;-75
2022/01/02 10:48:37;;;;;;;5.15;3.97;;;11.60;56.80;;;;;;5146229;27;34225;-76
2022/01/02 10:51:09;;;;;;;4.82;3.63;;;11.50;56.40;;;;;;5124787;27;34510;-76
2022/01/02 10:53:37;;;;;;;7.05;4.15;;;11.60;57.10;;;;;;5103339;27;36780;-75
2022/01/02 10:56:06;;;;;;;5.50;3.38;;;11.60;57.00;;;;;;5096112;27;34395;-76
2022/01/02 10:58:33;;;;;;;6.30;3.60;;;11.60;56.90;;;;;;5129135;27;34278;-76
2022/01/02 11:01:04;;;;;;;4.90;3.95;;;11.60;56.80;;;;;;5146542;27;34278;-75
2022/01/02 11:03:31;;;;;;;5.13;3.28;;;11.60;56.70;;;;;;5162896;27;36831;-75
2022/01/02 11:06:05;;;;;;;9.20;3.60;;;11.70;56.90;;;;;;5128487;27;34316;-75
2022/01/02 11:08:34;;;;;;;4.25;3.40;;;11.70;56.60;;;;;;5111134;27;34130;-75
2022/01/02 11:11:01;;;;;;;4.07;3.58;;;11.80;56.60;;;;;;5144911;27;34343;-75
2022/01/02 11:13:27;;;;;;;6.15;3.63;;;11.90;56.80;;;;;;5110561;27;35602;-75
2022/01/02 11:15:54;;;;;;;4.00;3.50;;;12.00;56.60;;;;;;5123575;27;34240;-76
2022/01/02 11:18:21;;;;;;;4.05;3.35;;;12.00;56.50;;;;;;5145333;27;34261;-76
2022/01/02 11:20:47;;;;;;;4.63;3.50;;;12.00;56.40;;;;;;5145812;27;34386;-75
2022/01/02 11:23:34;;;;;;;4.78;3.25;;;12.00;56.40;;;;;;5145396;27;34452;-75
2022/01/02 11:26:31;;;;;;;3.35;2.85;;;12.00;56.40;;;;;;5127264;27;34285;-75
2022/01/02 11:28:57;;;;;;;3.88;3.20;;;12.00;55.70;;;;;;5106282;27;34455;-75
2022/01/02 11:31:31;;;;;;;5.55;2.78;;;11.90;56.50;;;;;;5144983;27;34506;-75
2022/01/02 11:33:58;;;;;;;4.03;2.83;;;12.00;56.30;;;;;;5127280;27;36187;-76
2022/01/02 11:36:28;;;;;;;2.95;2.65;;;12.00;56.40;;;;;;5126999;27;34123;-76
2022/01/02 11:39:04;;;;;;;7.45;2.80;;;12.00;56.30;;;;;;5110737;27;34196;-75
2022/01/02 11:41:51;;;;;;;3.58;2.55;;;11.90;56.10;;;;;;5146367;27;34195;-75
2022/01/02 11:44:22;;;;;;;5.60;2.60;;;12.00;55.00;;;;;;5133602;27;36385;-75
2022/01/02 11:46:58;;;;;;;2.70;2.03;;;12.00;56.10;;;;;;5130854;27;34299;-75
2022/01/02 11:49:27;;;;;;;2.60;2.08;;;12.00;55.60;;;;;;5130747;27;34268;-76
2022/01/02 11:51:58;;;;;;;2.83;2.10;;;12.00;56.10;;;;;;5148341;27;34235;-75
2022/01/02 11:54:46;;;;;;;3.80;2.75;;;12.00;56.00;;;;;;5147032;27;35534;-75
2022/01/02 11:57:47;;;;;;;3.05;2.42;;;12.00;54.60;;;;;;5148006;27;34528;-75
2022/01/02 12:00:32;;;;;;;3.25;2.50;;;12.00;54.70;;;;;;5152707;27;34210;-75
2022/01/02 12:02:58;;;;;;;3.95;2.78;;;12.00;54.10;;;;;;5130889;27;34329;-75
2022/01/02 12:05:25;;;;;;;4.45;2.72;;;12.00;55.90;;;;;;5165849;27;34324;-75
2022/01/02 12:07:53;;;;;;;5.75;2.90;;;12.00;55.90;;;;;;5148017;27;34397;-75
2022/01/02 12:10:24;;;;;;;4.07;2.60;;;12.00;55.80;;;;;;5165682;27;34105;-75
2022/01/02 12:13:16;;;;;;;4.18;2.60;;;12.00;55.80;;;;;;5148526;27;34048;-75
2022/01/02 12:16:07;;;;;;;3.15;2.35;;;12.00;53.50;;;;;;5134020;27;36313;-75
2022/01/02 12:18:34;;;;;;;3.30;2.63;;;12.00;53.60;;;;;;5130393;27;34232;-75
2022/01/02 12:21:10;;;;;;;4.47;2.50;;;12.00;55.60;;;;;;5147664;27;34145;-75
2022/01/02 12:23:53;;;;;;;3.53;2.33;;;12.00;55.20;;;;;;5147408;27;34297;-75
2022/01/02 12:26:27;;;;;;;4.63;2.60;;;12.00;54.40;;;;;;5147014;27;36045;-75
2022/01/02 12:28:57;;;;;;;2.53;2.33;;;12.10;55.60;;;;;;5147642;27;34356;-75
2022/01/02 12:31:35;;;;;;;3.17;2.08;;;12.10;55.40;;;;;;5147013;27;34457;-75
2022/01/02 12:34:08;;;;;;;3.05;2.60;;;12.10;55.40;;;;;;5147822;27;34353;-75
2022/01/02 12:36:35;;;;;;;4.05;2.28;;;12.20;55.50;;;;;;5165559;27;34279;-75
2022/01/02 12:39:05;;;;;;;4.13;2.10;;;12.30;55.60;;;;;;5147652;27;34259;-75
2022/01/02 12:41:34;;;;;;;2.63;1.98;;;12.50;55.50;;;;;;5147309;27;34378;-75
2022/01/02 12:44:10;;;;;;;2.22;2.03;;;12.60;55.20;;;;;;5146901;27;34519;-75
2022/01/02 12:46:42;;;;;;;2.17;1.98;;;12.70;54.60;;;;;;5129707;27;34413;-75
2022/01/02 12:49:13;;;;;;;4.68;2.10;;;12.80;55.00;;;;;;5165239;27;34176;-75
2022/01/02 12:51:44;;;;;;;2.67;2.22;;;12.80;54.50;;;;;;5148466;27;34125;-75
2022/01/02 12:54:14;;;;;;;2.80;2.13;;;12.90;55.00;;;;;;5164181;27;34211;-75
2022/01/02 12:56:43;;;;;;;7.78;2.00;;;12.90;54.90;;;;;;5129438;27;35737;-75
2022/01/02 12:59:14;;;;;;;4.05;2.30;;;12.90;54.90;;;;;;5146652;27;34228;-75
2022/01/02 13:02:08;;;;;;;2.47;1.92;;;12.90;54.50;;;;;;5147614;27;34202;-75
2022/01/02 13:04:40;;;;;;;2.72;1.80;;;12.90;52.90;;;;;;5103566;27;34410;-75
2022/01/02 13:07:12;;;;;;;2.00;1.48;;;13.00;54.90;;;;;;5151407;27;36108;-76